createdAt,value
2019-06-07T00:00:40.745Z,98.95
2019-06-07T00:03:10.716Z,98.55
2019-06-07T00:05:34.053Z,98.65
2019-06-07T00:08:07.733Z,98.68
2019-06-07T00:10:36.982Z,99.64
2019-06-07T00:12:54.033Z,100.00
2019-06-07T00:15:27.967Z,100.00
2019-06-07T00:17:47.536Z,100.00
2019-06-07T00:20:17.504Z,99.38
2019-06-07T00:22:40.978Z,100.00
2019-06-07T00:25:12.081Z,99.91
2019-06-07T00:27:34.438Z,99.61
2019-06-07T00:30:29.531Z,98.71
2019-06-07T00:32:27.902Z,98.65
2019-06-07T00:34:54.646Z,99.17
2019-06-07T00:37:25.227Z,98.56
2019-06-07T00:40:12.636Z,98.45
2019-06-07T00:42:18.626Z,98.49
2019-06-07T00:44:41.574Z,99.47
2019-06-07T00:47:08.313Z,98.65
2019-06-07T00:49:40.903Z,99.20
2019-06-07T00:52:01.882Z,98.98
2019-06-07T00:54:28.623Z,99.04
2019-06-07T00:56:55.356Z,98.40
2019-06-07T00:59:28.912Z,98.91
2019-06-07T01:01:48.854Z,97.45
2019-06-07T01:04:17.878Z,98.92
2019-06-07T01:06:42.338Z,99.54
2019-06-07T01:09:09.084Z,98.34
2019-06-07T01:11:35.798Z,99.29
2019-06-07T01:14:02.582Z,100.00
2019-06-07T01:16:53.137Z,99.51
2019-06-07T01:18:56.330Z,98.37
2019-06-07T01:21:24.830Z,98.75
2019-06-07T01:24:12.086Z,99.05
2019-06-07T01:26:18.989Z,99.41
2019-06-07T01:28:43.339Z,99.45
2019-06-07T01:31:10.048Z,99.70
2019-06-07T01:33:50.300Z,98.83
2019-06-07T01:36:03.658Z,98.07
2019-06-07T01:38:30.382Z,98.99
2019-06-07T01:40:57.139Z,99.22
2019-06-07T01:43:28.419Z,98.06
2019-06-07T01:45:50.615Z,98.97
2019-06-07T01:48:22.798Z,99.04
2019-06-07T01:50:44.947Z,99.29
2019-06-07T01:53:11.662Z,98.83
2019-06-07T01:55:38.405Z,99.03
2019-06-07T01:58:05.498Z,99.12
2019-06-07T02:00:32.886Z,100.00
2019-06-07T02:02:58.977Z,100.00
2019-06-07T02:05:30.211Z,100.00
2019-06-07T02:07:52.430Z,100.00
2019-06-07T02:10:19.691Z,100.00
2019-06-07T02:12:45.886Z,100.00
2019-06-07T02:15:12.622Z,100.00
2019-06-07T02:17:39.339Z,100.00
2019-06-07T02:20:06.097Z,100.00
2019-06-07T02:22:32.861Z,100.00
2019-06-07T02:25:34.418Z,100.00
2019-06-07T02:27:27.496Z,100.00
2019-06-07T02:29:53.070Z,100.00
2019-06-07T02:32:21.566Z,100.00
2019-06-07T02:34:46.621Z,100.00
2019-06-07T02:37:13.349Z,100.00
2019-06-07T02:39:41.093Z,100.00
2019-06-07T02:42:06.855Z,100.00
2019-06-07T02:44:39.173Z,100.00
2019-06-07T02:47:00.304Z,100.00
2019-06-07T02:49:32.961Z,100.00
2019-06-07T02:51:53.779Z,100.00
2019-06-07T02:54:20.521Z,100.00
2019-06-07T02:56:57.828Z,100.00
2019-06-07T02:59:15.244Z,100.00
2019-06-07T03:01:42.701Z,100.00
2019-06-07T03:04:08.695Z,100.00
2019-06-07T03:06:39.561Z,100.00
2019-06-07T03:09:02.450Z,100.00
2019-06-07T03:11:31.637Z,100.00
2019-06-07T03:13:55.980Z,100.00
2019-06-07T03:16:28.642Z,100.00
2019-06-07T03:19:03.570Z,100.00
2019-06-07T03:21:31.464Z,100.00
2019-06-07T03:23:57.031Z,100.00
2019-06-07T03:26:24.162Z,100.00
2019-06-07T03:28:50.898Z,100.00
2019-06-07T03:31:17.639Z,100.00
2019-06-07T03:33:45.570Z,100.00
2019-06-07T03:36:23.483Z,100.00
2019-06-07T03:38:39.938Z,100.00
2019-06-07T03:41:04.806Z,100.00
2019-06-07T03:43:35.042Z,100.00
2019-06-07T03:45:58.302Z,100.00
2019-06-07T03:48:25.511Z,100.00
2019-06-07T03:51:04.105Z,100.00
2019-06-07T03:53:18.985Z,100.00
2019-06-07T03:55:45.739Z,100.00
2019-06-07T04:00:42.947Z,100.00
2019-06-07T04:03:06.027Z,100.00
2019-06-07T04:05:38.142Z,100.00
2019-06-07T04:07:59.662Z,100.00
2019-06-07T04:10:45.772Z,100.00
2019-06-07T04:12:53.150Z,100.00
2019-06-07T04:15:19.885Z,100.00
2019-06-07T04:18:01.427Z,100.00
2019-06-07T04:20:13.382Z,100.00
2019-06-07T04:22:42.627Z,100.00
2019-06-07T04:25:07.094Z,100.00
2019-06-07T04:27:37.637Z,100.00
2019-06-07T04:30:07.059Z,100.00
2019-06-07T04:32:29.738Z,100.00
2019-06-07T04:34:54.078Z,100.00
2019-06-07T04:37:20.818Z,100.00
2019-06-07T04:39:47.563Z,100.00
2019-06-07T04:42:14.780Z,100.00
2019-06-07T04:44:42.800Z,100.00
2019-06-07T04:47:08.234Z,100.00
2019-06-07T04:49:38.237Z,100.00
2019-06-07T04:52:01.986Z,100.00
2019-06-07T04:54:31.479Z,100.00
2019-06-07T04:56:57.478Z,100.00
2019-06-07T05:00:00.916Z,100.00
2019-06-07T05:01:50.962Z,100.00
2019-06-07T05:04:17.803Z,100.00
2019-06-07T05:06:44.479Z,99.31
2019-06-07T05:09:11.230Z,98.46
2019-06-07T05:11:39.433Z,96.73
2019-06-07T05:14:04.962Z,94.75
2019-06-07T05:16:36.302Z,93.93
2019-06-07T05:18:58.424Z,92.02
2019-06-07T05:21:25.141Z,90.90
2019-06-07T05:24:10.369Z,90.30
2019-06-07T05:28:48.158Z,92.68
2019-06-07T05:31:14.893Z,94.51
2019-06-07T05:33:43.585Z,94.87
2019-06-07T05:36:08.389Z,93.52
2019-06-07T05:38:36.142Z,93.10
2019-06-07T05:41:01.856Z,91.59
2019-06-07T05:43:28.650Z,90.99
2019-06-07T05:45:55.341Z,92.00
2019-06-07T05:48:22.072Z,90.31
2019-06-07T05:50:56.597Z,88.52
2019-06-07T05:53:15.711Z,88.15
2019-06-07T05:55:47.119Z,89.21
2019-06-07T05:58:08.996Z,88.60
2019-06-07T06:00:36.848Z,89.43
2019-06-07T06:03:05.663Z,89.33
2019-06-07T06:05:34.519Z,89.04
2019-06-07T06:07:55.998Z,88.78
2019-06-07T06:10:22.750Z,87.45
2019-06-07T06:12:51.872Z,86.61
2019-06-07T06:15:16.226Z,85.21
2019-06-07T06:17:46.133Z,83.90
2019-06-07T06:20:09.671Z,82.57
2019-06-07T06:22:37.293Z,82.24
2019-06-07T06:28:03.463Z,80.64
2019-06-07T06:29:57.214Z,79.26
2019-06-07T06:32:41.709Z,80.47
2019-06-07T06:34:53.896Z,80.83
2019-06-07T06:37:17.469Z,78.01
2019-06-07T06:39:47.647Z,78.89
2019-06-07T06:42:10.930Z,78.84
2019-06-07T06:44:40.770Z,79.97
2019-06-07T06:47:04.413Z,77.23
2019-06-07T06:49:31.149Z,75.69
2019-06-07T06:51:57.874Z,74.90
2019-06-07T06:54:40.105Z,77.43
2019-06-07T06:56:52.793Z,77.90
2019-06-07T07:01:45.737Z,75.06
2019-06-07T07:04:13.430Z,75.40
2019-06-07T07:06:38.399Z,75.75
2019-06-07T07:09:05.778Z,74.88
2019-06-07T07:11:32.525Z,73.80
2019-06-07T07:13:59.242Z,74.53
2019-06-07T07:16:26.009Z,74.07
2019-06-07T07:18:54.571Z,76.81
2019-06-07T07:21:19.434Z,73.62
2019-06-07T07:24:07.807Z,72.81
2019-06-07T07:26:12.894Z,73.04
2019-06-07T07:28:39.614Z,75.09
2019-06-07T07:31:06.365Z,72.96
2019-06-07T07:34:20.819Z,71.88
2019-06-07T07:38:26.546Z,72.36
2019-06-07T07:41:07.403Z,72.09
2019-06-07T07:43:20.108Z,71.28
2019-06-07T07:45:51.030Z,73.03
2019-06-07T07:48:18.047Z,72.01
2019-06-07T07:50:40.250Z,71.02
2019-06-07T07:53:06.991Z,69.83
2019-06-07T07:55:33.755Z,70.79
2019-06-07T07:58:01.909Z,70.69
2019-06-07T08:00:50.323Z,71.58
2019-06-07T08:02:58.613Z,71.11
2019-06-07T08:05:33.639Z,71.33
2019-06-07T08:07:50.041Z,66.26
2019-06-07T08:10:14.213Z,68.26
2019-06-07T08:13:00.710Z,67.70
2019-06-07T08:15:07.724Z,68.51
2019-06-07T08:17:34.406Z,65.58
2019-06-07T08:20:02.812Z,66.33
2019-06-07T08:22:27.895Z,64.59
2019-06-07T08:24:55.965Z,65.84
2019-06-07T08:27:26.545Z,66.26
2019-06-07T08:30:11.912Z,63.47
2019-06-07T08:32:14.883Z,66.45
2019-06-07T08:34:41.678Z,66.45
2019-06-07T08:37:08.358Z,66.06
2019-06-07T08:39:35.094Z,67.03
2019-06-07T08:42:15.365Z,68.03
2019-06-07T08:44:28.574Z,64.92
2019-06-07T08:47:12.576Z,64.27
2019-06-07T08:49:22.054Z,66.00
2019-06-07T08:51:48.790Z,66.98
2019-06-07T08:54:22.727Z,66.40
2019-06-07T08:56:43.579Z,64.99
2019-06-07T08:59:11.419Z,64.21
2019-06-07T09:01:35.809Z,66.58
2019-06-07T09:04:07.761Z,63.55
2019-06-07T09:08:58.155Z,63.40
2019-06-07T09:11:22.773Z,62.88
2019-06-07T09:13:49.506Z,63.61
2019-06-07T09:16:16.256Z,62.45
2019-06-07T09:18:44.980Z,62.19
2019-06-07T09:21:10.017Z,63.39
2019-06-07T09:23:36.474Z,61.68
2019-06-07T09:26:15.356Z,63.00
2019-06-07T09:28:29.950Z,62.83
2019-06-07T09:30:59.260Z,62.84
2019-06-07T09:33:23.418Z,64.12
2019-06-07T09:35:50.214Z,62.31
2019-06-07T09:38:25.533Z,62.42
2019-06-07T09:40:43.666Z,61.50
2019-06-07T09:45:37.195Z,61.06
2019-06-07T09:48:10.077Z,61.22
2019-06-07T09:50:30.720Z,58.48
2019-06-07T09:53:04.897Z,57.92
2019-06-07T09:55:25.183Z,57.96
2019-06-07T09:57:50.960Z,59.53
2019-06-07T10:02:44.445Z,57.65
2019-06-07T10:05:14.006Z,55.83
2019-06-07T10:07:37.930Z,56.22
2019-06-07T10:12:31.408Z,56.19
2019-06-07T10:14:58.710Z,56.44
2019-06-07T10:17:24.884Z,56.07
2019-06-07T10:19:51.626Z,55.55
2019-06-07T10:22:18.371Z,57.20
2019-06-07T10:24:45.102Z,55.27
2019-06-07T10:27:11.887Z,58.04
2019-06-07T10:29:38.604Z,56.42
2019-06-07T10:32:06.765Z,55.01
2019-06-07T10:34:32.114Z,55.66
2019-06-07T10:36:58.925Z,54.01
2019-06-07T10:39:25.598Z,55.42
2019-06-07T10:41:54.152Z,57.35
2019-06-07T10:44:19.062Z,55.65
2019-06-07T10:46:45.806Z,56.58
2019-06-07T10:49:12.539Z,56.97
2019-06-07T10:51:39.270Z,54.73
2019-06-07T10:54:19.421Z,54.62
2019-06-07T10:56:32.781Z,55.57
2019-06-07T10:58:59.533Z,54.07
2019-06-07T11:01:26.330Z,54.95
2019-06-07T11:03:53.045Z,55.19
2019-06-07T11:06:19.790Z,55.80
2019-06-07T11:08:46.545Z,55.15
2019-06-07T11:11:14.437Z,54.49
2019-06-07T11:13:40.009Z,54.40
2019-06-07T11:16:06.925Z,54.22
2019-06-07T11:18:33.485Z,52.55
2019-06-07T11:21:00.211Z,52.84
2019-06-07T11:23:26.994Z,53.54
2019-06-07T11:25:53.723Z,55.26
2019-06-07T11:28:20.462Z,55.64
2019-06-07T11:30:47.192Z,54.53
2019-06-07T11:33:16.394Z,55.01
2019-06-07T11:35:40.681Z,53.45
2019-06-07T11:38:08.299Z,55.42
2019-06-07T11:40:35.861Z,54.14
2019-06-07T11:43:01.195Z,55.03
2019-06-07T11:45:28.243Z,53.15
2019-06-07T11:47:59.077Z,54.50
2019-06-07T11:50:24.576Z,54.77
2019-06-07T11:52:51.962Z,54.44
2019-06-07T11:55:19.094Z,52.82
2019-06-07T11:57:45.849Z,54.29
2019-06-07T12:00:13.914Z,53.33
2019-06-07T12:02:39.605Z,50.45
2019-06-07T12:05:07.474Z,49.97
2019-06-07T12:07:35.578Z,52.02
2019-06-07T12:10:02.381Z,51.51
2019-06-07T12:12:29.147Z,51.98
2019-06-07T12:14:55.863Z,52.02
2019-06-07T12:17:23.753Z,51.06
2019-06-07T12:19:49.880Z,49.91
2019-06-07T12:22:22.018Z,47.42
2019-06-07T12:24:50.258Z,50.69
2019-06-07T12:27:18.729Z,48.79
2019-06-07T12:29:45.254Z,51.75
2019-06-07T12:32:13.302Z,50.86
2019-06-07T12:34:39.534Z,48.03
2019-06-07T12:37:06.681Z,48.71
2019-06-07T12:39:33.442Z,49.58
2019-06-07T12:42:00.270Z,48.33
2019-06-07T12:44:28.017Z,49.61
2019-06-07T12:46:56.186Z,48.89
2019-06-07T12:49:27.410Z,51.21
2019-06-07T12:51:54.921Z,47.60
2019-06-07T12:54:23.733Z,49.05
2019-06-07T12:56:52.231Z,47.87
2019-06-07T12:59:17.898Z,47.96
2019-06-07T13:01:44.603Z,49.51
2019-06-07T13:04:14.308Z,48.52
2019-06-07T13:06:41.083Z,49.41
2019-06-07T13:09:09.441Z,48.68
2019-06-07T13:11:35.606Z,49.96
2019-06-07T13:14:02.669Z,51.07
2019-06-07T13:16:30.372Z,50.08
2019-06-07T13:18:58.150Z,49.37
2019-06-07T13:21:25.547Z,51.95
2019-06-07T13:23:52.407Z,49.30
2019-06-07T13:26:20.502Z,50.80
2019-06-07T13:28:47.665Z,50.01
2019-06-07T13:31:16.429Z,48.19
2019-06-07T13:33:46.555Z,49.40
2019-06-07T13:36:16.358Z,50.56
2019-06-07T13:38:43.619Z,47.71
2019-06-07T13:41:10.332Z,47.83
2019-06-07T13:43:40.099Z,49.27
2019-06-07T13:46:07.827Z,47.71
2019-06-07T13:48:37.360Z,47.93
2019-06-07T13:51:04.277Z,47.84
2019-06-07T13:53:31.284Z,48.92
2019-06-07T13:55:58.135Z,48.31
2019-06-07T13:58:26.366Z,49.09
2019-06-07T14:00:52.618Z,47.71
2019-06-07T14:03:23.671Z,48.17
2019-06-07T14:05:47.314Z,47.92
2019-06-07T14:08:14.927Z,46.91
2019-06-07T14:10:42.660Z,46.68
2019-06-07T14:13:12.936Z,49.73
2019-06-07T14:15:40.508Z,49.18
2019-06-07T14:18:07.659Z,48.96
2019-06-07T14:20:36.318Z,47.44
2019-06-07T14:23:04.014Z,47.53
2019-06-07T14:25:32.000Z,47.70
2019-06-07T14:27:59.409Z,49.52
2019-06-07T14:30:28.425Z,49.30
2019-06-07T14:32:53.721Z,49.21
2019-06-07T14:35:22.461Z,47.60
2019-06-07T14:37:51.686Z,45.93
2019-06-07T14:40:20.531Z,45.86
2019-06-07T14:42:49.095Z,45.60
2019-06-07T14:45:18.722Z,45.57
2019-06-07T14:47:46.291Z,46.24
2019-06-07T14:50:15.197Z,45.27
2019-06-07T14:52:42.615Z,44.48
2019-06-07T14:55:10.296Z,44.70
2019-06-07T14:57:37.884Z,42.73
2019-06-07T15:00:11.492Z,42.88
2019-06-07T15:02:45.140Z,41.31
2019-06-07T15:05:13.107Z,42.17
2019-06-07T15:07:44.162Z,41.72
2019-06-07T15:10:13.006Z,42.80
2019-06-07T15:12:40.170Z,44.44
2019-06-07T15:15:06.522Z,47.69
2019-06-07T15:17:35.306Z,48.83
2019-06-07T15:20:01.450Z,49.56
2019-06-07T15:22:30.067Z,50.09
2019-06-07T15:24:56.794Z,48.98
2019-06-07T15:27:23.164Z,53.86
2019-06-07T15:29:50.626Z,52.97
2019-06-07T15:32:18.955Z,52.08
2019-06-07T15:34:46.312Z,56.52
2019-06-07T15:37:13.038Z,52.15
2019-06-07T15:39:39.753Z,52.77
2019-06-07T15:42:06.506Z,56.08
2019-06-07T15:44:33.375Z,65.20
2019-06-07T15:46:59.973Z,60.47
2019-06-07T15:49:26.714Z,66.64
2019-06-07T15:51:53.466Z,69.08
2019-06-07T15:54:20.205Z,68.60
2019-06-07T15:56:47.043Z,69.60
2019-06-07T15:59:13.770Z,71.65
2019-06-07T16:01:41.918Z,69.57
2019-06-07T16:04:07.256Z,70.67
2019-06-07T16:06:34.357Z,69.84
2019-06-07T16:09:00.815Z,71.15
2019-06-07T16:11:27.558Z,71.49
2019-06-07T16:13:54.291Z,70.28
2019-06-07T16:16:21.042Z,68.08
2019-06-07T16:18:47.780Z,70.50
2019-06-07T16:21:14.530Z,69.67
2019-06-07T16:23:42.146Z,68.82
2019-06-07T16:26:08.122Z,59.90
2019-06-07T16:28:34.855Z,63.80
2019-06-07T16:31:01.634Z,63.21
2019-06-07T16:33:28.486Z,65.09
2019-06-07T16:35:55.229Z,63.83
2019-06-07T16:38:21.992Z,65.07
2019-06-07T16:40:48.893Z,63.99
2019-06-07T16:43:17.846Z,64.00
2019-06-07T16:45:42.814Z,65.05
2019-06-07T16:48:08.983Z,64.46
2019-06-07T16:50:36.701Z,64.04
2019-06-07T16:53:02.476Z,63.77
2019-06-07T16:55:29.194Z,62.12
2019-06-07T16:57:55.946Z,62.77
2019-06-07T17:00:22.680Z,63.26
2019-06-07T17:02:49.514Z,63.06
2019-06-07T17:05:16.282Z,62.66
2019-06-07T17:07:44.657Z,62.17
2019-06-07T17:10:09.763Z,61.34
2019-06-07T17:12:36.596Z,60.95
2019-06-07T17:15:04.178Z,60.17
2019-06-07T17:17:30.914Z,60.54
2019-06-07T17:19:57.702Z,59.76
2019-06-07T17:22:24.456Z,59.74
2019-06-07T17:24:51.189Z,58.86
2019-06-07T17:27:17.951Z,58.70
2019-06-07T17:29:45.830Z,56.99
2019-06-07T17:32:11.446Z,58.52
2019-06-07T17:34:38.177Z,56.47
2019-06-07T17:37:04.916Z,55.94
2019-06-07T17:39:31.647Z,55.85
2019-06-07T17:42:02.245Z,57.08
2019-06-07T17:44:25.230Z,57.04
2019-06-07T17:46:51.974Z,57.33
2019-06-07T17:49:18.712Z,58.35
2019-06-07T17:51:45.910Z,58.42
2019-06-07T17:54:12.271Z,59.88
2019-06-07T17:56:39.241Z,60.00
2019-06-07T17:59:05.996Z,60.80
2019-06-07T18:01:40.987Z,61.58
2019-06-07T18:03:59.839Z,61.89
2019-06-07T18:06:26.598Z,62.68
2019-06-07T18:08:53.797Z,61.44
2019-06-07T18:11:20.281Z,60.95
2019-06-07T18:13:48.187Z,62.71
2019-06-07T18:16:13.926Z,62.35
2019-06-07T18:18:40.714Z,61.91
2019-06-07T18:21:07.542Z,61.33
2019-06-07T18:23:34.293Z,60.63
2019-06-07T18:26:01.253Z,61.06
2019-06-07T18:28:27.902Z,61.56
2019-06-07T18:30:54.888Z,61.02
2019-06-07T18:33:21.374Z,59.38
2019-06-07T18:35:48.999Z,57.96
2019-06-07T18:38:14.960Z,59.19
2019-06-07T18:40:41.778Z,58.81
2019-06-07T18:43:08.537Z,58.24
2019-06-07T18:45:35.306Z,58.83
2019-06-07T18:48:02.054Z,58.62
2019-06-07T18:50:28.842Z,58.57
2019-06-07T18:52:55.712Z,58.10
2019-06-07T18:55:22.520Z,58.28
2019-06-07T18:57:50.199Z,58.31
2019-06-07T19:00:16.148Z,58.80
2019-06-07T19:02:42.887Z,59.14
2019-06-07T19:05:09.699Z,58.61
2019-06-07T19:07:36.557Z,58.64
2019-06-07T19:10:04.378Z,58.98
2019-06-07T19:12:31.125Z,59.38
2019-06-07T19:14:57.866Z,59.79
2019-06-07T19:17:24.648Z,59.49
2019-06-07T19:19:51.961Z,60.43
2019-06-07T19:22:18.235Z,60.74
2019-06-07T19:24:44.990Z,61.24
2019-06-07T19:27:11.719Z,61.70
2019-06-07T19:29:38.765Z,61.12
2019-06-07T19:32:05.598Z,61.22
2019-06-07T19:34:32.430Z,62.14
2019-06-07T19:36:59.800Z,62.88
2019-06-07T19:39:25.919Z,63.13
2019-06-07T19:41:53.916Z,63.04
2019-06-07T19:44:19.494Z,64.33
2019-06-07T19:46:46.245Z,64.28
2019-06-07T19:49:12.987Z,63.77
2019-06-07T19:51:39.902Z,63.61
2019-06-07T19:54:06.958Z,63.64
2019-06-07T19:56:33.723Z,63.30
2019-06-07T19:59:01.718Z,64.49
2019-06-07T20:01:27.221Z,65.37
2019-06-07T20:03:53.978Z,65.51
2019-06-07T20:06:20.718Z,65.89
2019-06-07T20:08:47.455Z,66.23
2019-06-07T20:11:14.202Z,66.22
2019-06-07T20:13:40.954Z,67.02
2019-06-07T20:16:07.706Z,66.71
2019-06-07T20:18:34.490Z,67.15
2019-06-07T20:21:02.595Z,67.74
2019-06-07T20:23:27.997Z,67.60
2019-06-07T20:25:54.718Z,68.00
2019-06-07T20:28:22.126Z,67.55
2019-06-07T20:30:52.147Z,67.22
2019-06-07T20:33:15.622Z,65.64
2019-06-07T20:35:42.491Z,65.22
2019-06-07T20:38:09.583Z,65.37
2019-06-07T20:40:36.051Z,64.49
2019-06-07T20:43:03.509Z,64.38
2019-06-07T20:45:33.729Z,64.77
2019-06-07T20:47:56.298Z,65.40
2019-06-07T20:50:23.108Z,64.75
2019-06-07T20:52:49.827Z,64.45
2019-06-07T20:55:16.594Z,64.98
2019-06-07T20:57:43.326Z,65.02
2019-06-07T21:00:16.635Z,64.55
2019-06-07T21:02:36.895Z,64.27
2019-06-07T21:05:05.191Z,63.62
2019-06-07T21:07:30.627Z,64.30
2019-06-07T21:09:57.406Z,64.22
2019-06-07T21:12:24.122Z,63.13
2019-06-07T21:14:50.869Z,63.67
2019-06-07T21:17:17.594Z,62.59
2019-06-07T21:19:44.329Z,63.01
2019-06-07T21:22:11.072Z,61.63
2019-06-07T21:24:37.803Z,62.88
2019-06-07T21:27:05.349Z,63.22
2019-06-07T21:29:31.262Z,63.45
2019-06-07T21:31:58.003Z,63.95
2019-06-07T21:34:24.726Z,64.26
2019-06-07T21:36:51.499Z,65.15
2019-06-07T21:39:18.223Z,66.00
2019-06-07T21:41:44.994Z,65.76
2019-06-07T21:44:12.433Z,67.50
2019-06-07T21:46:38.454Z,67.03
2019-06-07T21:49:06.413Z,67.31
2019-06-07T21:51:31.925Z,67.75
2019-06-07T21:53:58.662Z,68.20
2019-06-07T21:56:25.405Z,66.72
2019-06-07T21:58:52.142Z,67.74
2019-06-07T22:01:20.525Z,66.64
2019-06-07T22:03:47.286Z,67.66
2019-06-07T22:06:14.375Z,67.12
2019-06-07T22:08:41.115Z,67.51
2019-06-07T22:11:08.215Z,66.97
2019-06-07T22:13:34.594Z,67.17
2019-06-07T22:16:01.356Z,67.04
2019-06-07T22:18:28.094Z,67.10
2019-06-07T22:20:54.829Z,66.58
2019-06-07T22:23:21.578Z,67.38
2019-06-07T22:25:48.299Z,67.00
2019-06-07T22:28:15.041Z,67.18
2019-06-07T22:30:42.054Z,67.06
2019-06-07T22:33:08.783Z,67.20
2019-06-07T22:35:35.501Z,67.18
2019-06-07T22:38:02.271Z,66.25
2019-06-07T22:40:28.997Z,66.12
2019-06-07T22:42:55.742Z,66.81
2019-06-07T22:45:22.462Z,66.28
2019-06-07T22:47:49.216Z,66.35
2019-06-07T22:50:16.363Z,66.77
2019-06-07T22:52:42.702Z,66.25
2019-06-07T22:55:10.134Z,66.14
2019-06-07T22:57:41.830Z,66.23
2019-06-07T23:00:10.521Z,65.62
2019-06-07T23:02:35.275Z,65.97
2019-06-07T23:05:04.751Z,65.87
2019-06-07T23:07:28.805Z,66.14
2019-06-07T23:09:55.586Z,65.94
2019-06-07T23:12:22.326Z,65.83
2019-06-07T23:14:49.069Z,66.32
2019-06-07T23:17:15.830Z,66.52
2019-06-07T23:19:42.530Z,65.58
2019-06-07T23:22:09.915Z,66.76
2019-06-07T23:24:36.026Z,66.11
2019-06-07T23:27:02.751Z,66.84
2019-06-07T23:29:29.489Z,66.08
2019-06-07T23:31:56.249Z,65.65
2019-06-07T23:34:22.990Z,66.13
2019-06-07T23:36:49.722Z,65.13
2019-06-07T23:39:17.231Z,66.29
2019-06-07T23:41:43.203Z,66.33
2019-06-07T23:44:11.006Z,67.08
2019-06-07T23:46:36.682Z,66.02
2019-06-07T23:49:03.448Z,67.05
2019-06-07T23:51:30.171Z,68.10
2019-06-07T23:53:56.917Z,68.23
2019-06-07T23:56:23.642Z,67.98
2019-06-07T23:58:50.390Z,67.90
